Amsterdam, NY

5:26 PM EST on November 11, 2019 (GMT -0500)
East End @ Kirk Douglas House/Next to Mohawk Resources/Lifts LTD. | | Change Station
Active Advisory: Winter Weather Advisory

Elev 276 ft 42.93 °N, 74.18 °W | Updated 2 minutes ago

Overcast
Overcast
32.8 °F
Feels Like 26 °F
N
7
Wind Variable Wind from East
Gusts 7.0 mph

Today
High -- | Low -- °F
--% Chance of Precip.
Yesterday
High -- | Low -- °F
Precip. -- in
Pressure 30.08 in
Visibility 15.0 miles
Clouds Overcast 1400 ft
Windchill 26 °F
Dew Point 29 °F
Humidity 85%
Rainfall 0.02 in
Snow Depth Not available.
6:43 AM 4:37 PM
Full, 100% visible
METAR KSCH 112054Z 04008KT 15SM OVC014 00/M03 A3008 RMK VCSH NE
Pressure 30.08 in
Visibility 15.0 miles
Clouds Overcast 1400 ft
Windchill 26 °F
Dew Point 29 °F
Humidity 85%
Rainfall 0.02 in
Snow Depth Not available.
6:43 AM 4:37 PM
Full, 100% visible
METAR KSCH 112054Z 04008KT 15SM OVC014 00/M03 A3008 RMK VCSH NE

Get Your Daily Forecast Email!

Thanks for signing up!

Be on the lookout for a verification email in your inbox.

You'll start receiving severe weather alerts in your inbox..

×

10-Day Weather Forecast

Almanac

Astronomy

Nov. 11, 2019 Rise Set
Actual Time
Civil Twilight
Nautical Twilight
Astronomical Twilight
Moon
Length of Visible Light
Length of Day
Tomorrow will be .
, % of the Moon is Illuminated

Today's Extremes

State Highs State Lows

Community

WunderPhotos

Category 6

Welcome to Category 6. This is the collective home for Weather Underground's featured writeups by Dr. Jeff Masters (right), Bob Henson (left), Chris Burt, and other regular contributors.

Nearby

Air Quality

  Air Quality AQ Index Pollutant
Not available.

Snow Depth

Station Depth Elevation

Earthquake Activity

City Distance Mag. Time & Date
Minimum magnitude displayed is 2.5.

Coastal Water Temperatures

Place Temperature

Stations

Nearby Weather Stations

Station Location Temp. Windchill Dew Point Humidity Wind Precip. Elev Updated Type
                   

Watches & Warnings

Winter Weather Advisory
Issued: 3:35 PM EST Nov. 11, 2019 – National Weather Service

... Winter Weather Advisory remains in effect until noon EST
Tuesday...

* what... wet snow, sleet and freezing rain expected. Total snow
accumulations of 2 to 5 inches, greatest across the Mohawk
Valley and Lake George region, and ice accumulations up to one
tenth of an inch.

* Where... Mohawk Valley, Lake George Saratoga region, and
Bennington and western Windham counties in southern Vermont.

* When... through noon EST Tuesday.

* Impacts... plan on slippery Road conditions, especially for the
Tuesday morning commute.

Precautionary/preparedness actions...

Slow down and use caution while traveling.